Time;durP1;ratioP1;P1;durP2;ratioP2;P2;SDS_P1;SDS_P2;PMS_P1;PMS_P2;Temp;Humidity;BMP_temperature;BMP_pressure;BME280_temperature;BME280_humidity;BME280_pressure;Samples;Min_cycle;Max_cycle;Signal;HPM_P1;HPM_P2
2024/04/15 00:02:21;;;;;;;2.20;1.35;;;18.60;91.30;;;;;;5317696;26;20016;-77
2024/04/15 00:04:46;;;;;;;2.90;1.52;;;18.50;91.10;;;;;;5318591;26;20008;-77
2024/04/15 00:07:12;;;;;;;5.38;1.67;;;18.50;91.10;;;;;;5346991;26;19997;-78
2024/04/15 00:09:38;;;;;;;6.03;1.50;;;18.40;91.00;;;;;;5348315;26;20428;-78
2024/04/15 00:12:04;;;;;;;3.72;1.75;;;18.40;91.20;;;;;;5317601;26;20004;-78
2024/04/15 00:14:29;;;;;;;1.90;1.40;;;18.40;91.20;;;;;;5348778;26;19996;-78
2024/04/15 00:16:55;;;;;;;4.63;1.83;;;18.40;91.20;;;;;;5317944;26;19992;-78
2024/04/15 00:19:21;;;;;;;4.57;2.13;;;18.40;91.20;;;;;;5347305;26;20000;-78
2024/04/15 00:21:46;;;;;;;3.83;1.40;;;18.40;91.80;;;;;;5348109;26;19997;-78
2024/04/15 00:24:12;;;;;;;3.63;1.60;;;18.30;92.00;;;;;;5316878;26;20001;-77
2024/04/15 00:26:37;;;;;;;3.90;1.70;;;18.20;92.00;;;;;;5348355;26;20062;-77
2024/04/15 00:29:03;;;;;;;4.20;1.42;;;18.20;92.00;;;;;;5317146;26;19997;-78
2024/04/15 00:31:28;;;;;;;2.63;1.60;;;18.10;92.00;;;;;;5318090;26;20000;-78
2024/04/15 00:33:56;;;;;;;4.30;1.60;;;18.10;92.40;;;;;;5348373;26;20418;-77
2024/04/15 00:36:22;;;;;;;5.43;1.80;;;18.10;92.70;;;;;;5317377;26;20072;-77
2024/04/15 00:38:47;;;;;;;3.38;1.50;;;18.00;92.60;;;;;;5348405;26;19997;-77
2024/04/15 00:41:13;;;;;;;2.17;1.30;;;18.00;92.60;;;;;;5316796;26;20008;-77
2024/04/15 00:43:38;;;;;;;4.47;1.40;;;17.90;92.90;;;;;;5318035;26;19996;-77
2024/04/15 00:46:04;;;;;;;3.47;1.88;;;17.90;92.60;;;;;;5316999;26;20444;-77
2024/04/15 00:48:31;;;;;;;6.05;1.50;;;18.00;92.30;;;;;;5317810;26;20007;-77
2024/04/15 00:50:56;;;;;;;3.63;1.50;;;18.00;92.40;;;;;;5317595;26;20008;-76
2024/04/15 00:53:22;;;;;;;2.75;1.60;;;18.00;92.50;;;;;;5316766;26;20001;-76
2024/04/15 00:55:51;;;;;;;3.42;1.48;;;18.00;92.70;;;;;;5316896;26;20329;-76
2024/04/15 00:58:19;;;;;;;3.42;1.90;;;18.00;92.80;;;;;;5316294;26;20070;-77
2024/04/15 01:00:45;;;;;;;6.07;1.50;;;17.90;93.20;;;;;;5317469;26;20005;-77
2024/04/15 01:03:11;;;;;;;2.55;1.52;;;17.80;93.00;;;;;;5316760;26;20000;-77
2024/04/15 01:05:38;;;;;;;3.25;1.80;;;17.80;93.40;;;;;;5317236;26;19993;-77
2024/04/15 01:08:05;;;;;;;5.25;1.80;;;17.60;93.50;;;;;;5316973;26;20000;-76
2024/04/15 01:10:31;;;;;;;3.30;1.83;;;17.60;93.50;;;;;;5317660;26;20020;-77
2024/04/15 01:12:56;;;;;;;6.18;1.70;;;17.60;93.50;;;;;;5317711;26;20325;-78
2024/04/15 01:15:22;;;;;;;4.20;1.70;;;17.60;93.70;;;;;;5347286;26;20008;-77
2024/04/15 01:17:47;;;;;;;4.55;1.67;;;17.50;94.20;;;;;;5316474;26;20337;-77
2024/04/15 01:20:13;;;;;;;3.42;1.50;;;17.50;94.30;;;;;;5316158;26;19997;-78
2024/04/15 01:22:54;;;;;;;3.85;1.80;;;17.50;94.70;;;;;;5317094;26;20003;-78
2024/04/15 01:25:20;;;;;;;6.32;1.80;;;17.50;94.70;;;;;;5316327;26;20028;-78
2024/04/15 01:27:45;;;;;;;4.25;1.65;;;17.40;94.90;;;;;;5347674;26;19997;-78
2024/04/15 01:30:11;;;;;;;3.88;1.65;;;17.40;95.40;;;;;;5316367;26;20388;-77
2024/04/15 01:32:37;;;;;;;3.08;1.40;;;17.40;95.30;;;;;;5347538;26;20016;-78
2024/04/15 01:35:02;;;;;;;5.63;1.95;;;17.40;94.30;;;;;;5347635;26;20008;-78
2024/04/15 01:37:28;;;;;;;4.70;1.70;;;17.40;94.30;;;;;;5316524;26;20012;-78
2024/04/15 01:39:54;;;;;;;4.03;2.10;;;17.50;94.20;;;;;;5317294;26;20005;-78
2024/04/15 01:42:19;;;;;;;1.95;1.40;;;17.40;94.30;;;;;;5346708;26;20000;-78
2024/04/15 01:44:45;;;;;;;3.17;1.63;;;17.50;94.60;;;;;;5317088;26;20004;-78
2024/04/15 01:47:11;;;;;;;5.70;1.45;;;17.40;95.10;;;;;;5346592;26;20013;-76
2024/04/15 01:49:36;;;;;;;2.42;0.95;;;17.50;94.50;;;;;;5317047;26;20072;-76
2024/04/15 01:52:02;;;;;;;1.33;0.88;;;17.50;94.30;;;;;;5347402;26;20351;-75
2024/04/15 01:54:27;;;;;;;1.63;0.80;;;17.50;94.00;;;;;;5315902;26;19993;-76
2024/04/15 01:56:53;;;;;;;1.25;0.93;;;17.50;93.80;;;;;;5316680;26;20333;-77
2024/04/15 01:59:18;;;;;;;2.13;0.70;;;17.50;93.80;;;;;;5315763;26;20067;-78
2024/04/15 02:01:44;;;;;;;1.52;0.88;;;17.50;93.90;;;;;;5346937;26;20437;-77
2024/04/15 02:04:09;;;;;;;2.85;0.85;;;17.50;93.80;;;;;;5315644;26;19992;-77
2024/04/15 02:06:36;;;;;;;2.45;0.90;;;17.40;94.10;;;;;;5316485;26;20001;-77
2024/04/15 02:09:01;;;;;;;3.15;0.80;;;17.40;93.90;;;;;;5316829;26;19996;-78
2024/04/15 02:11:27;;;;;;;1.90;0.80;;;17.40;93.90;;;;;;5346638;26;19997;-77
2024/04/15 02:13:53;;;;;;;3.33;1.05;;;17.30;93.50;;;;;;5347264;26;20058;-78
2024/04/15 02:16:18;;;;;;;2.75;1.00;;;17.30;93.60;;;;;;5316030;26;20009;-79
2024/04/15 02:18:44;;;;;;;1.42;0.80;;;17.30;93.50;;;;;;5317250;26;20008;-78
2024/04/15 02:21:09;;;;;;;1.52;0.90;;;17.30;93.60;;;;;;5346632;26;20445;-77
2024/04/15 02:23:35;;;;;;;3.17;0.90;;;17.30;93.70;;;;;;5316478;26;20078;-78
2024/04/15 02:26:00;;;;;;;2.35;1.17;;;17.30;93.50;;;;;;5316493;26;20066;-78
2024/04/15 02:28:26;;;;;;;2.67;0.90;;;17.30;93.50;;;;;;5345960;26;20214;-78
2024/04/15 02:30:51;;;;;;;1.45;0.90;;;17.30;93.60;;;;;;5315968;26;20000;-78
2024/04/15 02:33:17;;;;;;;1.67;1.13;;;17.30;93.60;;;;;;5315606;26;20012;-78
2024/04/15 02:35:42;;;;;;;4.20;1.10;;;17.20;93.50;;;;;;5316422;26;19997;-78
2024/04/15 02:38:08;;;;;;;0.98;0.77;;;17.20;93.30;;;;;;5346653;26;20001;-78
2024/04/15 02:40:34;;;;;;;2.35;0.98;;;17.20;93.30;;;;;;5316180;26;20001;-78
2024/04/15 02:43:00;;;;;;;1.88;0.90;;;17.20;93.20;;;;;;5316557;26;19997;-77
2024/04/15 02:45:26;;;;;;;3.20;0.90;;;17.20;93.40;;;;;;5315491;26;20011;-78
2024/04/15 02:47:51;;;;;;;4.50;1.00;;;17.20;93.50;;;;;;5346898;26;19993;-78
2024/04/15 02:50:17;;;;;;;1.55;0.93;;;17.20;93.40;;;;;;5315608;26;20012;-78
2024/04/15 02:52:43;;;;;;;1.25;0.75;;;17.20;93.40;;;;;;5316598;26;20044;-78
2024/04/15 02:55:08;;;;;;;1.55;1.05;;;17.20;93.60;;;;;;5346492;26;20005;-77
2024/04/15 02:57:34;;;;;;;2.22;1.25;;;17.10;93.70;;;;;;5315720;26;20000;-78
2024/04/15 02:59:59;;;;;;;2.47;0.98;;;17.10;94.00;;;;;;5315703;26;20024;-78
2024/04/15 03:02:25;;;;;;;1.80;0.70;;;17.10;94.30;;;;;;5314935;26;20001;-78
2024/04/15 03:04:51;;;;;;;4.38;0.88;;;17.00;94.50;;;;;;5346034;26;20000;-77
2024/04/15 03:07:16;;;;;;;1.60;0.70;;;17.10;94.50;;;;;;5315055;26;20005;-78
2024/04/15 03:09:42;;;;;;;2.45;0.70;;;17.10;94.50;;;;;;5316345;26;20036;-78
2024/04/15 03:12:08;;;;;;;2.65;0.80;;;17.00;95.10;;;;;;5346351;26;20000;-78
2024/04/15 03:14:33;;;;;;;3.33;1.08;;;16.90;95.60;;;;;;5315500;26;20001;-77
2024/04/15 03:16:59;;;;;;;1.20;0.80;;;16.90;95.80;;;;;;5315642;26;19993;-77
2024/04/15 03:19:24;;;;;;;1.35;0.65;;;16.80;96.00;;;;;;5345095;26;20012;-77
2024/04/15 03:21:50;;;;;;;2.35;0.82;;;16.80;95.80;;;;;;5345788;26;19997;-77
2024/04/15 03:24:15;;;;;;;2.88;1.00;;;16.80;96.00;;;;;;5315037;26;20001;-77
2024/04/15 03:26:41;;;;;;;2.50;0.90;;;16.80;96.60;;;;;;5315757;26;20386;-77
2024/04/15 03:29:06;;;;;;;3.65;0.80;;;16.80;96.60;;;;;;5315418;26;20001;-77
2024/04/15 03:31:32;;;;;;;4.40;0.90;;;16.70;96.70;;;;;;5314806;26;20040;-77
2024/04/15 03:33:57;;;;;;;3.75;0.80;;;16.70;96.70;;;;;;5315790;26;20448;-78
2024/04/15 03:36:23;;;;;;;1.40;0.65;;;16.70;97.00;;;;;;5344969;26;20011;-78
2024/04/15 03:38:49;;;;;;;4.65;1.10;;;16.70;97.20;;;;;;5315341;26;20005;-78
2024/04/15 03:41:14;;;;;;;3.72;0.98;;;16.60;97.80;;;;;;5314787;26;20008;-77
2024/04/15 03:43:40;;;;;;;3.72;0.93;;;16.40;98.20;;;;;;5349017;26;20005;-78
2024/04/15 03:46:06;;;;;;;2.20;0.70;;;16.40;98.30;;;;;;5318656;26;19997;-78
2024/04/15 03:48:31;;;;;;;3.35;1.00;;;16.30;98.40;;;;;;5348103;26;19997;-78
2024/04/15 03:50:57;;;;;;;3.38;0.98;;;16.10;98.70;;;;;;5318582;26;20337;-78
2024/04/15 03:53:23;;;;;;;2.60;1.10;;;16.10;99.00;;;;;;5318063;26;20441;-78
2024/04/15 03:55:52;;;;;;;6.10;1.10;;;16.10;99.00;;;;;;5349319;26;20018;-78
2024/04/15 03:58:18;;;;;;;1.98;1.27;;;16.10;99.10;;;;;;5317990;26;19993;-78
2024/04/15 04:00:44;;;;;;;4.25;1.30;;;16.00;98.90;;;;;;5318902;26;20011;-78
2024/04/15 04:03:09;;;;;;;2.95;0.90;;;16.00;99.00;;;;;;5318449;26;20024;-78
2024/04/15 04:05:35;;;;;;;4.65;0.90;;;16.10;98.80;;;;;;5348300;26;20370;-77
2024/04/15 04:08:00;;;;;;;3.40;0.85;;;16.10;98.70;;;;;;5318934;26;20009;-78
2024/04/15 04:10:26;;;;;;;3.20;1.08;;;16.10;98.80;;;;;;5317888;26;19997;-78
2024/04/15 04:12:51;;;;;;;2.17;0.98;;;16.00;99.00;;;;;;5349150;26;20514;-78
2024/04/15 04:15:17;;;;;;;3.30;1.00;;;15.90;99.20;;;;;;5348517;26;20007;-78
2024/04/15 04:17:46;;;;;;;4.53;1.10;;;15.90;98.90;;;;;;5349110;26;20337;-77
2024/04/15 04:20:11;;;;;;;1.80;1.13;;;15.90;99.10;;;;;;5349206;26;20003;-78
2024/04/15 04:22:37;;;;;;;3.83;1.10;;;15.80;99.30;;;;;;5317460;26;19997;-77
2024/04/15 04:25:02;;;;;;;2.55;0.85;;;15.90;99.10;;;;;;5318542;26;20000;-78
2024/04/15 04:27:28;;;;;;;2.88;0.80;;;15.90;98.90;;;;;;5348445;26;20356;-78
2024/04/15 04:29:54;;;;;;;1.35;0.80;;;15.80;98.90;;;;;;5318399;26;19997;-78
2024/04/15 04:32:19;;;;;;;2.55;0.88;;;15.80;98.90;;;;;;5317366;26;20012;-77
2024/04/15 04:34:45;;;;;;;2.63;0.98;;;15.90;99.20;;;;;;5348510;26;20011;-78
2024/04/15 04:37:12;;;;;;;1.83;0.85;;;15.80;99.00;;;;;;5348850;26;20043;-78
2024/04/15 04:39:37;;;;;;;2.65;0.77;;;15.80;99.00;;;;;;5348222;26;20003;-78
2024/04/15 04:42:03;;;;;;;3.03;1.08;;;15.70;99.00;;;;;;5348810;26;20329;-77
2024/04/15 04:44:29;;;;;;;1.38;0.90;;;15.70;99.10;;;;;;5317293;26;20004;-77
2024/04/15 04:46:54;;;;;;;2.03;1.30;;;15.80;99.40;;;;;;5348409;26;20417;-77
2024/04/15 04:49:20;;;;;;;2.40;1.00;;;15.60;99.40;;;;;;5347138;26;20429;-77
2024/04/15 04:51:45;;;;;;;4.00;1.08;;;15.60;99.30;;;;;;5317687;26;19997;-77
2024/04/15 04:54:13;;;;;;;2.83;1.30;;;15.60;99.50;;;;;;5348145;26;19997;-77
2024/04/15 04:56:39;;;;;;;1.60;0.98;;;15.60;99.70;;;;;;5317320;26;20008;-77
2024/04/15 04:59:05;;;;;;;2.50;1.20;;;15.60;99.50;;;;;;5348517;26;20307;-78
2024/04/15 05:01:31;;;;;;;3.70;1.15;;;15.50;99.60;;;;;;5347440;26;20016;-78
2024/04/15 05:03:57;;;;;;;2.75;1.13;;;15.50;99.80;;;;;;5317535;26;20004;-77
2024/04/15 05:06:22;;;;;;;2.90;1.10;;;15.50;99.90;;;;;;5315488;26;20017;-77
2024/04/15 05:08:48;;;;;;;3.10;1.38;;;15.50;99.90;;;;;;5348065;26;19997;-77
2024/04/15 05:11:15;;;;;;;1.73;1.08;;;15.40;99.90;;;;;;5317702;26;20016;-77
2024/04/15 05:13:41;;;;;;;3.38;1.10;;;15.40;99.90;;;;;;5316653;26;20012;-77
2024/04/15 05:16:11;;;;;;;2.03;1.08;;;15.40;99.90;;;;;;5347973;26;19993;-77
2024/04/15 05:18:38;;;;;;;3.42;1.30;;;15.40;99.90;;;;;;5316214;26;20001;-77
2024/04/15 05:21:09;;;;;;;1.63;0.90;;;15.40;99.90;;;;;;5347471;26;20015;-77
2024/04/15 05:23:35;;;;;;;2.58;1.10;;;15.40;99.90;;;;;;5346871;26;20355;-77
2024/04/15 05:26:01;;;;;;;3.42;1.00;;;15.50;99.90;;;;;;5317104;26;20449;-77
2024/04/15 05:28:26;;;;;;;2.47;1.00;;;15.40;99.90;;;;;;5346345;26;20025;-77
2024/04/15 05:30:54;;;;;;;4.03;1.17;;;15.50;99.90;;;;;;5347616;26;20019;-77
2024/04/15 05:33:20;;;;;;;5.28;1.23;;;15.50;99.90;;;;;;5346371;26;20360;-76
2024/04/15 05:35:46;;;;;;;1.92;1.13;;;15.40;99.90;;;;;;5316197;26;20019;-77
2024/04/15 05:38:12;;;;;;;3.22;1.30;;;15.40;99.90;;;;;;5347152;26;20324;-77
2024/04/15 05:40:38;;;;;;;4.05;1.27;;;15.40;99.90;;;;;;5346396;26;20040;-77
2024/04/15 05:43:07;;;;;;;3.90;1.15;;;15.50;99.90;;;;;;5326310;26;20053;-77
2024/04/15 05:45:33;;;;;;;4.25;1.20;;;15.40;99.90;;;;;;5281600;27;20489;-76
2024/04/15 05:47:59;;;;;;;3.30;1.23;;;15.50;99.90;;;;;;5311882;27;20006;-77
2024/04/15 05:50:24;;;;;;;1.88;1.42;;;15.30;99.90;;;;;;5311480;27;20377;-77
2024/04/15 05:52:50;;;;;;;3.33;1.33;;;15.40;99.90;;;;;;5282713;27;19998;-78
2024/04/15 05:55:16;;;;;;;3.90;1.15;;;15.40;99.90;;;;;;5311333;27;20453;-77
2024/04/15 05:57:41;;;;;;;4.03;1.60;;;15.50;99.90;;;;;;5312395;27;19998;-77
2024/04/15 06:00:07;;;;;;;5.22;1.50;;;15.40;99.90;;;;;;5282884;27;19997;-77
2024/04/15 06:02:33;;;;;;;3.95;1.38;;;15.40;99.90;;;;;;5310369;27;20008;-77
2024/04/15 06:04:58;;;;;;;4.35;1.75;;;15.50;99.90;;;;;;5322688;26;20345;-76
2024/04/15 06:07:24;;;;;;;2.97;1.30;;;15.40;99.90;;;;;;5310992;27;20005;-77
2024/04/15 06:09:50;;;;;;;7.57;1.50;;;15.40;99.90;;;;;;5281668;27;20004;-77
2024/04/15 06:12:16;;;;;;;2.95;1.30;;;15.40;99.90;;;;;;5313129;27;20011;-77
2024/04/15 06:14:41;;;;;;;4.93;1.58;;;15.40;99.90;;;;;;5312258;27;19995;-77
2024/04/15 06:17:07;;;;;;;2.55;1.33;;;15.40;99.90;;;;;;5282632;27;20422;-77
2024/04/15 06:19:33;;;;;;;2.47;1.50;;;15.40;99.90;;;;;;5282122;27;20004;-77
2024/04/15 06:22:00;;;;;;;2.35;1.33;;;15.40;99.90;;;;;;5312382;27;19998;-76
2024/04/15 06:24:26;;;;;;;2.85;1.52;;;15.40;99.90;;;;;;5281800;27;20438;-77
2024/04/15 06:26:52;;;;;;;4.97;1.65;;;15.50;99.90;;;;;;5312749;27;20012;-77
2024/04/15 06:29:18;;;;;;;2.78;1.40;;;15.40;99.90;;;;;;5312410;27;19998;-76
2024/04/15 06:31:43;;;;;;;3.20;1.77;;;15.40;99.90;;;;;;5281949;27;20040;-77
2024/04/15 06:34:09;;;;;;;9.32;1.85;;;15.40;99.90;;;;;;5282739;27;20012;-77
2024/04/15 06:36:34;;;;;;;5.28;1.60;;;15.40;99.90;;;;;;5281774;27;19997;-77
2024/04/15 06:39:01;;;;;;;3.10;1.80;;;15.40;99.90;;;;;;5312682;27;20002;-77
2024/04/15 06:41:26;;;;;;;2.35;1.60;;;15.40;99.90;;;;;;5312239;27;20315;-77
2024/04/15 06:43:52;;;;;;;5.03;1.58;;;15.30;99.90;;;;;;5282297;27;20008;-77
2024/04/15 06:46:17;;;;;;;3.83;1.73;;;15.30;99.90;;;;;;5282122;27;19993;-77
2024/04/15 06:48:43;;;;;;;3.45;1.73;;;15.30;99.90;;;;;;5281388;27;20009;-77
2024/04/15 06:51:09;;;;;;;4.93;2.33;;;15.20;99.90;;;;;;5281999;27;20445;-77
2024/04/15 06:53:36;;;;;;;5.68;2.10;;;15.20;99.90;;;;;;5281496;27;19997;-77
2024/04/15 06:56:02;;;;;;;6.50;1.85;;;15.10;99.90;;;;;;5312336;27;20068;-77
2024/04/15 06:58:28;;;;;;;4.60;2.22;;;15.00;99.90;;;;;;5311896;27;20012;-76
2024/04/15 07:00:57;;;;;;;4.18;1.80;;;15.00;99.90;;;;;;5281937;27;20039;-77
2024/04/15 07:03:23;;;;;;;6.28;2.58;;;14.90;99.90;;;;;;5280643;27;19994;-76
2024/04/15 07:05:49;;;;;;;7.88;2.30;;;14.90;99.90;;;;;;5311611;27;20435;-77
2024/04/15 07:08:14;;;;;;;4.43;2.55;;;14.90;99.90;;;;;;5282245;27;19994;-76
2024/04/15 07:10:40;;;;;;;5.25;2.35;;;14.90;99.90;;;;;;5281565;27;20426;-78
2024/04/15 07:13:06;;;;;;;3.88;2.65;;;14.90;99.90;;;;;;5281902;27;19993;-77
2024/04/15 07:15:32;;;;;;;7.63;2.30;;;15.00;99.90;;;;;;5281325;27;20001;-77
2024/04/15 07:17:58;;;;;;;6.95;2.47;;;15.00;99.90;;;;;;5284300;27;20358;-77
2024/04/15 07:20:23;;;;;;;3.35;1.95;;;15.00;99.90;;;;;;5314537;27;20001;-76
2024/04/15 07:22:49;;;;;;;4.57;2.45;;;15.00;99.90;;;;;;5315152;27;20008;-77
2024/04/15 07:25:15;;;;;;;4.90;2.40;;;14.90;99.90;;;;;;5315105;27;20458;-77
2024/04/15 07:27:41;;;;;;;5.80;2.25;;;14.90;99.90;;;;;;5314339;27;20005;-77
2024/04/15 07:30:07;;;;;;;6.00;2.55;;;14.90;99.90;;;;;;5285117;27;20001;-77
2024/04/15 07:32:33;;;;;;;5.30;2.30;;;15.00;99.90;;;;;;5284245;27;20005;-77
2024/04/15 07:34:58;;;;;;;5.40;2.20;;;14.90;99.90;;;;;;5284880;27;19993;-77
2024/04/15 07:37:24;;;;;;;6.35;2.70;;;14.90;99.90;;;;;;5284326;27;20024;-77
2024/04/15 07:39:50;;;;;;;6.75;2.65;;;14.90;99.90;;;;;;5314929;27;20016;-76
2024/04/15 07:42:16;;;;;;;9.27;2.75;;;14.90;99.90;;;;;;5314314;27;20330;-77
2024/04/15 07:44:45;;;;;;;4.45;2.10;;;15.00;99.90;;;;;;5313887;27;20013;-77
2024/04/15 07:47:10;;;;;;;6.18;2.47;;;15.10;99.90;;;;;;5314409;27;20441;-77
2024/04/15 07:49:36;;;;;;;6.28;2.30;;;15.10;99.90;;;;;;5283830;27;19997;-76
2024/04/15 07:52:02;;;;;;;3.75;2.22;;;15.10;99.90;;;;;;5284286;27;19993;-77
2024/04/15 07:54:27;;;;;;;9.00;2.22;;;15.10;99.90;;;;;;5283653;27;20326;-76
2024/04/15 07:56:54;;;;;;;7.13;2.38;;;15.10;99.90;;;;;;5314541;27;20334;-77
2024/04/15 07:59:19;;;;;;;6.10;2.38;;;15.20;99.90;;;;;;5314413;27;20011;-77
2024/04/15 08:01:45;;;;;;;7.35;2.75;;;15.30;99.90;;;;;;5283670;27;20181;-76
2024/04/15 08:04:10;;;;;;;4.93;2.10;;;15.30;99.90;;;;;;5314179;27;20385;-77
2024/04/15 08:06:36;;;;;;;2.95;2.03;;;15.40;99.90;;;;;;5283367;27;20008;-77
2024/04/15 08:09:02;;;;;;;4.55;2.17;;;15.30;99.90;;;;;;5314380;27;20016;-75
2024/04/15 08:11:27;;;;;;;6.68;2.45;;;15.20;99.90;;;;;;5283284;27;19998;-76
2024/04/15 08:13:53;;;;;;;6.95;1.98;;;15.10;99.90;;;;;;5284260;27;19997;-77
2024/04/15 08:16:19;;;;;;;6.32;2.22;;;15.10;99.90;;;;;;5314423;27;20064;-77
2024/04/15 08:18:48;;;;;;;3.78;1.83;;;15.00;99.90;;;;;;5283578;27;20001;-77
2024/04/15 08:21:13;;;;;;;7.38;2.25;;;15.00;99.90;;;;;;5284542;27;19997;-77
2024/04/15 08:23:39;;;;;;;7.70;2.08;;;15.10;99.90;;;;;;5313808;27;20072;-77
2024/04/15 08:26:06;;;;;;;4.57;2.00;;;15.10;99.90;;;;;;5314628;27;20437;-77
2024/04/15 08:28:32;;;;;;;3.38;1.73;;;15.20;99.90;;;;;;5313191;27;20044;-76
2024/04/15 08:30:58;;;;;;;3.90;1.80;;;15.20;99.90;;;;;;5314491;27;19993;-77
2024/04/15 08:33:24;;;;;;;5.43;2.08;;;15.30;99.90;;;;;;5283995;27;20026;-77
2024/04/15 08:35:50;;;;;;;4.97;1.98;;;15.30;99.90;;;;;;5283565;27;20004;-77
2024/04/15 08:38:16;;;;;;;3.90;2.05;;;15.30;99.90;;;;;;5314369;27;20037;-78
2024/04/15 08:40:56;;;;;;;6.20;1.98;;;15.50;99.90;;;;;;5283264;27;19993;-77
2024/04/15 08:43:24;;;;;;;7.53;2.08;;;15.60;99.90;;;;;;5314099;27;20006;-77
2024/04/15 08:46:00;;;;;;;6.82;1.95;;;15.60;99.90;;;;;;5313425;27;20002;-77
2024/04/15 08:48:26;;;;;;;5.15;2.25;;;15.70;99.90;;;;;;5314148;27;20423;-77
2024/04/15 08:50:57;;;;;;;5.65;2.00;;;15.90;99.90;;;;;;5283283;27;20080;-76
2024/04/15 08:53:23;;;;;;;5.35;2.30;;;15.90;99.90;;;;;;5313920;27;20008;-77
2024/04/15 08:55:48;;;;;;;3.80;2.30;;;16.00;99.90;;;;;;5313235;27;20193;-77
2024/04/15 08:58:15;;;;;;;5.18;2.20;;;16.10;99.90;;;;;;5283694;27;19998;-77
2024/04/15 09:00:41;;;;;;;5.43;1.80;;;16.10;99.90;;;;;;5283017;27;19998;-77
2024/04/15 09:03:09;;;;;;;3.80;2.05;;;16.00;99.90;;;;;;5283402;27;19998;-77
2024/04/15 09:05:34;;;;;;;4.20;2.10;;;15.90;99.90;;;;;;5312499;27;20008;-76
2024/04/15 09:08:00;;;;;;;4.22;1.77;;;15.80;99.90;;;;;;5283765;27;19998;-77
2024/04/15 09:10:26;;;;;;;4.03;2.20;;;15.70;99.90;;;;;;5313673;27;20076;-77
2024/04/15 09:12:52;;;;;;;5.97;2.55;;;15.60;99.90;;;;;;5282975;27;20009;-77
2024/04/15 09:15:22;;;;;;;8.07;2.13;;;15.60;99.90;;;;;;5283735;27;20004;-77
2024/04/15 09:17:50;;;;;;;5.30;2.10;;;15.70;99.90;;;;;;5283005;27;19993;-77
2024/04/15 09:20:18;;;;;;;4.80;1.77;;;15.80;99.90;;;;;;5283515;27;20008;-77
2024/04/15 09:22:43;;;;;;;3.33;1.60;;;15.80;99.90;;;;;;5283006;27;20000;-77
2024/04/15 09:25:10;;;;;;;5.90;2.15;;;15.70;99.90;;;;;;5283438;27;19997;-77
2024/04/15 09:27:36;;;;;;;5.05;1.98;;;15.70;99.90;;;;;;5282720;27;20375;-77
2024/04/15 09:30:03;;;;;;;5.88;2.28;;;15.90;99.90;;;;;;5313784;27;20006;-77
2024/04/15 09:32:29;;;;;;;4.93;1.80;;;16.00;99.90;;;;;;5283121;27;20329;-77
2024/04/15 09:35:00;;;;;;;3.90;1.83;;;16.20;99.90;;;;;;5282871;27;20101;-77
2024/04/15 09:37:27;;;;;;;4.23;1.70;;;16.20;99.90;;;;;;5283387;27;20008;-77
2024/04/15 09:39:52;;;;;;;10.88;2.40;;;16.10;99.90;;;;;;5311726;27;19993;-77
2024/04/15 09:42:19;;;;;;;6.70;2.58;;;16.10;99.90;;;;;;5313499;27;20035;-77
2024/04/15 09:44:47;;;;;;;4.60;2.40;;;16.10;99.90;;;;;;5312740;27;20005;-77
2024/04/15 09:47:13;;;;;;;5.47;1.92;;;16.20;99.90;;;;;;5312952;27;20001;-77
2024/04/15 09:49:39;;;;;;;4.85;2.17;;;16.20;99.90;;;;;;5282150;27;19998;-76
2024/04/15 09:52:11;;;;;;;6.10;1.60;;;16.30;99.90;;;;;;5283043;27;20013;-77
2024/04/15 09:54:40;;;;;;;6.68;2.00;;;16.50;99.90;;;;;;5312748;27;20004;-81
2024/04/15 09:57:18;;;;;;;5.70;2.00;;;16.60;99.90;;;;;;5313263;27;20005;-77
2024/04/15 09:59:45;;;;;;;2.88;1.90;;;16.60;99.90;;;;;;5282125;27;20029;-77
2024/04/15 10:02:50;;;;;;;12.05;3.92;;;16.70;99.90;;;;;;5312741;27;19998;-77
2024/04/15 10:05:24;;;;;;;4.05;1.95;;;16.90;99.90;;;;;;5310866;27;20013;-77
2024/04/15 10:07:56;;;;;;;7.35;2.35;;;17.00;99.90;;;;;;5282377;27;20004;-77
2024/04/15 10:10:23;;;;;;;5.32;1.92;;;17.20;99.90;;;;;;5282838;27;20009;-77
2024/04/15 10:12:51;;;;;;;3.80;1.80;;;17.20;99.90;;;;;;5281836;27;20013;-77
2024/04/15 10:15:18;;;;;;;3.28;2.33;;;17.00;99.90;;;;;;5282524;27;19997;-77
2024/04/15 10:18:05;;;;;;;4.55;1.83;;;16.90;99.90;;;;;;5282232;27;20001;-77
2024/04/15 10:20:34;;;;;;;7.68;1.80;;;17.00;99.90;;;;;;5282883;27;19997;-76
2024/04/15 10:23:03;;;;;;;6.57;1.75;;;17.10;99.90;;;;;;5312626;27;20447;-76
2024/04/15 10:25:34;;;;;;;5.38;1.90;;;17.20;99.90;;;;;;5312870;27;20045;-76
2024/04/15 10:28:00;;;;;;;7.70;1.75;;;17.20;99.90;;;;;;5313189;27;20017;-76
2024/04/15 10:30:27;;;;;;;8.82;1.60;;;17.00;99.30;;;;;;5312626;27;20030;-76
2024/04/15 10:33:02;;;;;;;7.70;1.70;;;16.80;98.70;;;;;;5281688;27;20449;-76
2024/04/15 10:35:28;;;;;;;5.80;1.85;;;16.70;99.40;;;;;;5312522;27;20005;-76
2024/04/15 10:37:58;;;;;;;3.63;1.50;;;16.90;99.60;;;;;;5311628;27;20079;-76
2024/04/15 10:40:29;;;;;;;4.72;1.63;;;17.20;99.80;;;;;;5282019;27;20041;-77
2024/04/15 10:42:56;;;;;;;3.92;1.40;;;17.10;98.60;;;;;;5311406;27;20285;-77
2024/04/15 10:45:22;;;;;;;3.50;1.50;;;17.10;99.20;;;;;;5281917;27;20467;-76
2024/04/15 10:47:47;;;;;;;4.70;1.67;;;17.00;99.10;;;;;;5281480;27;20427;-76
2024/04/15 10:50:13;;;;;;;5.20;1.70;;;17.10;98.10;;;;;;5281528;27;20002;-77
2024/04/15 10:52:39;;;;;;;7.15;1.55;;;17.00;98.60;;;;;;5281313;27;19998;-76
2024/04/15 10:55:05;;;;;;;4.03;1.48;;;17.00;98.60;;;;;;5311856;27;20068;-76
2024/04/15 10:57:31;;;;;;;4.50;1.50;;;17.00;98.40;;;;;;5281582;27;20419;-76
2024/04/15 10:59:56;;;;;;;3.53;1.33;;;17.00;98.50;;;;;;5281268;27;20013;-76
2024/04/15 11:02:22;;;;;;;5.32;1.90;;;17.10;98.60;;;;;;5281913;27;19998;-76
2024/04/15 11:04:51;;;;;;;3.85;1.50;;;17.00;98.80;;;;;;5310920;27;20032;-76
2024/04/15 11:07:17;;;;;;;3.97;1.52;;;17.00;99.00;;;;;;5281342;27;20022;-76
2024/04/15 11:09:43;;;;;;;4.80;1.42;;;16.80;98.10;;;;;;5280810;27;19998;-76
2024/04/15 11:12:09;;;;;;;6.18;1.75;;;16.90;98.30;;;;;;5311184;27;20009;-76
2024/04/15 11:14:34;;;;;;;5.50;1.35;;;17.00;97.80;;;;;;5311802;27;20140;-77
2024/04/15 11:17:00;;;;;;;4.13;1.38;;;17.30;97.90;;;;;;5310849;27;20333;-76
2024/04/15 11:19:26;;;;;;;4.75;1.70;;;17.30;97.70;;;;;;5311968;27;20001;-77
2024/04/15 11:22:05;;;;;;;4.45;1.40;;;17.30;98.20;;;;;;5280943;27;20005;-76
2024/04/15 11:24:34;;;;;;;4.95;1.50;;;17.20;97.40;;;;;;5311818;27;19997;-76
2024/04/15 11:27:05;;;;;;;3.92;1.85;;;17.20;97.00;;;;;;5280672;27;20002;-77
2024/04/15 11:29:31;;;;;;;3.22;1.33;;;17.20;97.60;;;;;;5311861;27;20481;-76
2024/04/15 11:31:56;;;;;;;5.75;1.50;;;17.30;97.50;;;;;;5280765;27;20001;-76
2024/04/15 11:34:22;;;;;;;2.95;1.27;;;17.40;97.20;;;;;;5311652;27;20064;-76
2024/04/15 11:36:49;;;;;;;7.38;1.40;;;17.40;97.20;;;;;;5280796;27;20002;-76
2024/04/15 11:39:15;;;;;;;9.52;1.40;;;17.40;96.40;;;;;;5281418;27;19998;-76
2024/04/15 11:41:42;;;;;;;7.57;1.15;;;17.20;96.30;;;;;;5280486;27;20001;-76
2024/04/15 11:44:08;;;;;;;4.80;1.20;;;17.20;96.50;;;;;;5280859;27;19998;-76
2024/04/15 11:46:42;;;;;;;5.68;1.35;;;17.20;97.30;;;;;;5281070;27;20072;-76
2024/04/15 11:49:08;;;;;;;3.00;1.30;;;17.30;97.00;;;;;;5311281;27;19993;-76
2024/04/15 11:51:35;;;;;;;3.20;1.17;;;17.50;95.90;;;;;;5280659;27;19997;-77
2024/04/15 11:54:01;;;;;;;5.57;1.13;;;17.40;96.20;;;;;;5280013;27;19993;-76
2024/04/15 11:56:27;;;;;;;3.58;1.00;;;17.40;95.50;;;;;;5280361;27;20009;-77
2024/04/15 11:58:52;;;;;;;3.78;1.20;;;17.40;95.50;;;;;;5280093;27;20008;-76
2024/04/15 12:01:18;;;;;;;3.45;1.23;;;17.50;95.60;;;;;;5280862;27;20001;-77
2024/04/15 12:03:44;;;;;;;3.72;1.00;;;17.70;95.50;;;;;;5312679;27;19998;-76
2024/04/15 12:06:10;;;;;;;5.18;1.25;;;17.90;94.80;;;;;;5313980;26;20002;-76
2024/04/15 12:08:36;;;;;;;5.82;1.40;;;17.80;94.60;;;;;;5284004;27;20004;-77
2024/04/15 12:11:10;;;;;;;3.70;1.42;;;17.80;94.90;;;;;;5283409;27;20010;-77
2024/04/15 12:13:36;;;;;;;4.80;1.35;;;17.80;94.60;;;;;;5283782;27;19994;-76
2024/04/15 12:16:01;;;;;;;2.70;0.88;;;17.90;94.30;;;;;;5313493;27;20012;-76
2024/04/15 12:18:27;;;;;;;9.32;1.10;;;18.00;94.60;;;;;;5314015;27;19993;-76
2024/04/15 12:20:52;;;;;;;7.55;1.10;;;18.00;94.20;;;;;;5313382;27;19997;-76
2024/04/15 12:23:18;;;;;;;2.90;0.98;;;18.00;93.40;;;;;;5314067;27;19993;-76
2024/04/15 12:25:44;;;;;;;2.60;0.80;;;18.10;93.10;;;;;;5313918;27;20450;-77
2024/04/15 12:28:10;;;;;;;3.47;0.90;;;18.10;91.80;;;;;;5313905;27;20030;-76
2024/04/15 12:30:35;;;;;;;6.80;0.90;;;18.20;91.50;;;;;;5313939;27;20009;-76
2024/04/15 12:33:01;;;;;;;5.05;0.73;;;18.30;91.40;;;;;;5283033;27;19998;-76
2024/04/15 12:35:27;;;;;;;4.80;1.20;;;18.60;90.40;;;;;;5313916;27;20041;-76
2024/04/15 12:37:52;;;;;;;2.95;0.80;;;18.60;90.90;;;;;;5313254;27;20449;-76
2024/04/15 12:40:18;;;;;;;3.90;0.82;;;18.70;90.30;;;;;;5314179;27;19997;-77
2024/04/15 12:42:43;;;;;;;2.05;0.90;;;18.90;90.50;;;;;;5283325;27;20005;-76
2024/04/15 12:45:09;;;;;;;8.02;0.73;;;19.00;90.60;;;;;;5283715;27;20001;-77